sensor_id;sensor_type;location;lat;lon;timestamp;pressure;altitude;pressure_sealevel;temperature;humidity
64158;BME280;50449;51.528;5.076;2022-12-15T00:02:37;100555.75;;;-1.05;61.44
64158;BME280;50449;51.528;5.076;2022-12-15T00:05:21;100548.78;;;-1.06;61.16
64158;BME280;50449;51.528;5.076;2022-12-15T00:08:07;100554.09;;;-1.06;61.15
64158;BME280;50449;51.528;5.076;2022-12-15T00:10:50;100542.84;;;-1.08;61.38
64158;BME280;50449;51.528;5.076;2022-12-15T00:13:34;100542.84;;;-1.08;61.31
64158;BME280;50449;51.528;5.076;2022-12-15T00:16:18;100551.63;;;-1.07;61.55
64158;BME280;50449;51.528;5.076;2022-12-15T00:19:02;100554.28;;;-1.07;61.18
64158;BME280;50449;51.528;5.076;2022-12-15T00:21:46;100550.81;;;-1.08;61.30
64158;BME280;50449;51.528;5.076;2022-12-15T00:24:30;100552.59;;;-1.09;61.25
64158;BME280;50449;51.528;5.076;2022-12-15T00:27:14;100564.22;;;-1.10;61.44
64158;BME280;50449;51.528;5.076;2022-12-15T00:29:58;100565.03;;;-1.09;61.42
64158;BME280;50449;51.528;5.076;2022-12-15T00:32:42;100567.03;;;-1.11;61.15
64158;BME280;50449;51.528;5.076;2022-12-15T00:35:26;100564.38;;;-1.11;61.30
64158;BME280;50449;51.528;5.076;2022-12-15T00:38:12;100567.88;;;-1.11;61.31
64158;BME280;50449;51.528;5.076;2022-12-15T00:40:56;100555.59;;;-1.12;61.37
64158;BME280;50449;51.528;5.076;2022-12-15T00:43:34;100556.41;;;-1.11;61.38
64158;BME280;50449;51.528;5.076;2022-12-15T00:45:59;100565.38;;;-1.12;61.70
64158;BME280;50449;51.528;5.076;2022-12-15T00:48:44;100575.31;;;-1.14;61.37
64158;BME280;50449;51.528;5.076;2022-12-15T00:51:10;100575.16;;;-1.13;61.16
64158;BME280;50449;51.528;5.076;2022-12-15T00:53:36;100569.03;;;-1.13;61.25
64158;BME280;50449;51.528;5.076;2022-12-15T00:56:20;100570.03;;;-1.14;61.24
64158;BME280;50449;51.528;5.076;2022-12-15T00:59:04;100570.03;;;-1.14;61.58
64158;BME280;50449;51.528;5.076;2022-12-15T01:01:51;100577.97;;;-1.14;61.40
64158;BME280;50449;51.528;5.076;2022-12-15T01:04:35;100581.63;;;-1.15;61.12
64158;BME280;50449;51.528;5.076;2022-12-15T01:07:19;100578.97;;;-1.15;61.36
64158;BME280;50449;51.528;5.076;2022-12-15T01:10:03;100579.13;;;-1.17;61.49
64158;BME280;50449;51.528;5.076;2022-12-15T01:12:47;100581.78;;;-1.17;61.29
64158;BME280;50449;51.528;5.076;2022-12-15T01:15:31;100581.13;;;-1.19;61.56
64158;BME280;50449;51.528;5.076;2022-12-15T01:18:15;100574.84;;;-1.18;61.30
64158;BME280;50449;51.528;5.076;2022-12-15T01:21:02;100573.19;;;-1.19;61.20
64158;BME280;50449;51.528;5.076;2022-12-15T01:23:29;100585.59;;;-1.19;61.46
64158;BME280;50449;51.528;5.076;2022-12-15T01:25:55;100582.13;;;-1.20;61.35
64158;BME280;50449;51.528;5.076;2022-12-15T01:28:21;100595.38;;;-1.20;61.06
64158;BME280;50449;51.528;5.076;2022-12-15T01:30:47;100589.25;;;-1.20;61.08
64158;BME280;50449;51.528;5.076;2022-12-15T01:33:14;100591.09;;;-1.21;61.51
64158;BME280;50449;51.528;5.076;2022-12-15T01:35:40;100599.88;;;-1.20;61.18
64158;BME280;50449;51.528;5.076;2022-12-15T01:38:06;100599.88;;;-1.20;61.23
64158;BME280;50449;51.528;5.076;2022-12-15T01:40:32;100590.25;;;-1.21;61.57
64158;BME280;50449;51.528;5.076;2022-12-15T01:43:18;100598.03;;;-1.20;61.12
64158;BME280;50449;51.528;5.076;2022-12-15T01:53:52;100603.69;;;-1.23;61.16
64158;BME280;50449;51.528;5.076;2022-12-15T01:56:20;100604.66;;;-1.24;61.33
64158;BME280;50449;51.528;5.076;2022-12-15T01:58:48;100609.81;;;-1.22;61.31
64158;BME280;50449;51.528;5.076;2022-12-15T02:01:15;100607.16;;;-1.22;61.17
64158;BME280;50449;51.528;5.076;2022-12-15T02:03:42;100612.63;;;-1.24;61.16
64158;BME280;50449;51.528;5.076;2022-12-15T02:06:09;100606.50;;;-1.24;61.37
64158;BME280;50449;51.528;5.076;2022-12-15T02:08:36;100618.91;;;-1.25;61.34
64158;BME280;50449;51.528;5.076;2022-12-15T02:11:15;100619.75;;;-1.24;61.27
64158;BME280;50449;51.528;5.076;2022-12-15T02:14:07;100623.41;;;-1.25;61.20
64158;BME280;50449;51.528;5.076;2022-12-15T02:21:41;100627.88;;;-1.26;60.98
64158;BME280;50449;51.528;5.076;2022-12-15T02:30:04;100635.16;;;-1.28;61.53
64158;BME280;50449;51.528;5.076;2022-12-15T02:32:36;100636.13;;;-1.29;61.35
64158;BME280;50449;51.528;5.076;2022-12-15T02:35:09;100640.63;;;-1.29;61.04
64158;BME280;50449;51.528;5.076;2022-12-15T02:37:40;100645.91;;;-1.29;61.27
64158;BME280;50449;51.528;5.076;2022-12-15T02:40:08;100648.75;;;-1.31;61.16
64158;BME280;50449;51.528;5.076;2022-12-15T02:42:39;100655.03;;;-1.32;61.30
64158;BME280;50449;51.528;5.076;2022-12-15T02:45:10;100653.19;;;-1.32;61.31
64158;BME280;50449;51.528;5.076;2022-12-15T02:47:50;100639.94;;;-1.32;61.45
64158;BME280;50449;51.528;5.076;2022-12-15T02:50:33;100639.94;;;-1.32;61.10
64158;BME280;50449;51.528;5.076;2022-12-15T02:56:15;100649.06;;;-1.34;61.26
64158;BME280;50449;51.528;5.076;2022-12-15T02:59:05;100648.25;;;-1.35;61.15
64158;BME280;50449;51.528;5.076;2022-12-15T03:01:59;100645.59;;;-1.35;61.01
64158;BME280;50449;51.528;5.076;2022-12-15T03:04:26;100654.56;;;-1.36;61.15
64158;BME280;50449;51.528;5.076;2022-12-15T03:06:56;100653.53;;;-1.35;61.04
64158;BME280;50449;51.528;5.076;2022-12-15T03:09:22;100654.56;;;-1.36;61.08
64158;BME280;50449;51.528;5.076;2022-12-15T03:11:48;100652.06;;;-1.37;61.04
64158;BME280;50449;51.528;5.076;2022-12-15T03:14:13;100650.41;;;-1.38;61.32
64158;BME280;50449;51.528;5.076;2022-12-15T03:16:38;100662.81;;;-1.39;60.94
64158;BME280;50449;51.528;5.076;2022-12-15T03:19:04;100665.47;;;-1.39;61.20
64158;BME280;50449;51.528;5.076;2022-12-15T03:21:29;100661.00;;;-1.38;61.03
64158;BME280;50449;51.528;5.076;2022-12-15T03:23:55;100662.81;;;-1.39;61.01
64158;BME280;50449;51.528;5.076;2022-12-15T03:26:20;100663.81;;;-1.40;60.98
64158;BME280;50449;51.528;5.076;2022-12-15T03:28:45;100669.94;;;-1.39;61.17
64158;BME280;50449;51.528;5.076;2022-12-15T03:31:11;100674.41;;;-1.40;60.97
64158;BME280;50449;51.528;5.076;2022-12-15T03:33:36;100670.94;;;-1.40;60.72
64158;BME280;50449;51.528;5.076;2022-12-15T03:36:02;100672.78;;;-1.41;60.56
64158;BME280;50449;51.528;5.076;2022-12-15T03:38:27;100667.47;;;-1.41;61.04
64158;BME280;50449;51.528;5.076;2022-12-15T03:40:53;100672.78;;;-1.41;61.00
64158;BME280;50449;51.528;5.076;2022-12-15T03:43:18;100669.28;;;-1.41;60.93
64158;BME280;50449;51.528;5.076;2022-12-15T03:45:44;100672.94;;;-1.42;60.94
64158;BME280;50449;51.528;5.076;2022-12-15T03:48:09;100672.09;;;-1.43;60.96
64158;BME280;50449;51.528;5.076;2022-12-15T03:50:34;100664.31;;;-1.44;61.15
64158;BME280;50449;51.528;5.076;2022-12-15T03:53:02;100665.97;;;-1.43;60.78
64158;BME280;50449;51.528;5.076;2022-12-15T03:55:28;100667.78;;;-1.44;60.83
64158;BME280;50449;51.528;5.076;2022-12-15T03:57:54;100666.97;;;-1.44;61.14
64158;BME280;50449;51.528;5.076;2022-12-15T04:00:20;100667.97;;;-1.45;60.84
64158;BME280;50449;51.528;5.076;2022-12-15T04:02:47;100673.25;;;-1.45;60.71
64158;BME280;50449;51.528;5.076;2022-12-15T04:05:30;100670.63;;;-1.45;60.97
64158;BME280;50449;51.528;5.076;2022-12-15T04:07:57;100663.63;;;-1.46;61.02
64158;BME280;50449;51.528;5.076;2022-12-15T04:10:26;100664.66;;;-1.47;61.02
64158;BME280;50449;51.528;5.076;2022-12-15T04:12:58;100664.81;;;-1.49;60.81
64158;BME280;50449;51.528;5.076;2022-12-15T04:15:25;100663.16;;;-1.50;60.88
64158;BME280;50449;51.528;5.076;2022-12-15T04:17:50;100670.28;;;-1.50;61.05
64158;BME280;50449;51.528;5.076;2022-12-15T04:20:16;100665.97;;;-1.52;61.24
64158;BME280;50449;51.528;5.076;2022-12-15T04:22:43;100664.31;;;-1.53;61.11
64158;BME280;50449;51.528;5.076;2022-12-15T04:25:12;100671.25;;;-1.52;61.18
64158;BME280;50449;51.528;5.076;2022-12-15T04:27:57;100667.78;;;-1.52;61.01
64158;BME280;50449;51.528;5.076;2022-12-15T04:30:44;100668.78;;;-1.53;61.11
64158;BME280;50449;51.528;5.076;2022-12-15T04:33:30;100668.94;;;-1.55;61.08
64158;BME280;50449;51.528;5.076;2022-12-15T04:36:15;100673.44;;;-1.55;60.99
64158;BME280;50449;51.528;5.076;2022-12-15T04:39:02;100677.06;;;-1.56;60.82
64158;BME280;50449;51.528;5.076;2022-12-15T04:41:46;100676.22;;;-1.57;60.88
64158;BME280;50449;51.528;5.076;2022-12-15T04:44:30;100678.06;;;-1.57;61.11
64158;BME280;50449;51.528;5.076;2022-12-15T04:47:14;100671.94;;;-1.58;61.11
64158;BME280;50449;51.528;5.076;2022-12-15T04:49:58;100674.59;;;-1.58;60.84
64158;BME280;50449;51.528;5.076;2022-12-15T04:52:42;100672.94;;;-1.59;61.06
64158;BME280;50449;51.528;5.076;2022-12-15T04:55:26;100674.91;;;-1.61;61.01
64158;BME280;50449;51.528;5.076;2022-12-15T04:58:10;100675.75;;;-1.60;61.07
64158;BME280;50449;51.528;5.076;2022-12-15T05:00:56;100686.34;;;-1.60;60.85
64158;BME280;50449;51.528;5.076;2022-12-15T05:03:41;100682.03;;;-1.61;61.10
64158;BME280;50449;51.528;5.076;2022-12-15T05:06:25;100688.50;;;-1.64;60.83
64158;BME280;50449;51.528;5.076;2022-12-15T05:09:09;100695.44;;;-1.63;61.07
64158;BME280;50449;51.528;5.076;2022-12-15T05:11:53;100697.25;;;-1.63;60.89
64158;BME280;50449;51.528;5.076;2022-12-15T05:14:36;100693.78;;;-1.64;61.05
64158;BME280;50449;51.528;5.076;2022-12-15T05:17:20;100700.06;;;-1.65;61.13
64158;BME280;50449;51.528;5.076;2022-12-15T05:20:04;100695.59;;;-1.64;60.94
64158;BME280;50449;51.528;5.076;2022-12-15T05:22:54;100705.38;;;-1.65;60.82
64158;BME280;50449;51.528;5.076;2022-12-15T05:25:37;100698.25;;;-1.64;61.22
64158;BME280;50449;51.528;5.076;2022-12-15T05:28:22;100693.28;;;-1.67;60.96
64158;BME280;50449;51.528;5.076;2022-12-15T05:31:06;100694.28;;;-1.68;61.10
64158;BME280;50449;51.528;5.076;2022-12-15T05:33:51;100693.44;;;-1.69;60.93
64158;BME280;50449;51.528;5.076;2022-12-15T05:36:16;100696.94;;;-1.68;61.13
64158;BME280;50449;51.528;5.076;2022-12-15T05:38:42;100698.72;;;-1.69;60.98
64158;BME280;50449;51.528;5.076;2022-12-15T05:41:07;100696.94;;;-1.68;61.04
64158;BME280;50449;51.528;5.076;2022-12-15T05:43:32;100709.31;;;-1.69;60.93
64158;BME280;50449;51.528;5.076;2022-12-15T05:46:02;100702.38;;;-1.70;60.75
64158;BME280;50449;51.528;5.076;2022-12-15T05:48:28;100705.84;;;-1.69;60.80
64158;BME280;50449;51.528;5.076;2022-12-15T05:50:53;100708.50;;;-1.69;60.87
64158;BME280;50449;51.528;5.076;2022-12-15T05:53:19;100716.44;;;-1.69;61.03
64158;BME280;50449;51.528;5.076;2022-12-15T05:55:44;100709.50;;;-1.70;61.03
64158;BME280;50449;51.528;5.076;2022-12-15T05:58:09;100712.16;;;-1.70;61.18
64158;BME280;50449;51.528;5.076;2022-12-15T06:00:35;100713.78;;;-1.69;61.11
64158;BME280;50449;51.528;5.076;2022-12-15T06:03:00;100712.97;;;-1.70;60.96
64158;BME280;50449;51.528;5.076;2022-12-15T06:05:27;100716.44;;;-1.69;60.78
64158;BME280;50449;51.528;5.076;2022-12-15T06:07:52;100723.56;;;-1.70;61.10
64158;BME280;50449;51.528;5.076;2022-12-15T06:10:17;100719.28;;;-1.71;60.98
64158;BME280;50449;51.528;5.076;2022-12-15T06:12:43;100725.22;;;-1.69;60.93
64158;BME280;50449;51.528;5.076;2022-12-15T06:15:08;100715.63;;;-1.70;60.96
64158;BME280;50449;51.528;5.076;2022-12-15T06:17:34;100721.91;;;-1.71;61.14
64158;BME280;50449;51.528;5.076;2022-12-15T06:19:59;100711.31;;;-1.71;61.02
64158;BME280;50449;51.528;5.076;2022-12-15T06:22:27;100719.28;;;-1.71;61.01
64158;BME280;50449;51.528;5.076;2022-12-15T06:24:53;100710.47;;;-1.71;61.08
64158;BME280;50449;51.528;5.076;2022-12-15T06:27:18;100721.91;;;-1.71;60.93
64158;BME280;50449;51.528;5.076;2022-12-15T06:29:44;100714.94;;;-1.72;61.11
64158;BME280;50449;51.528;5.076;2022-12-15T06:32:09;100706.19;;;-1.72;61.08
64158;BME280;50449;51.528;5.076;2022-12-15T06:34:34;100716.78;;;-1.72;61.18
64158;BME280;50449;51.528;5.076;2022-12-15T06:37:01;100720.44;;;-1.73;60.77
64158;BME280;50449;51.528;5.076;2022-12-15T06:39:26;100732.81;;;-1.74;61.10
64158;BME280;50449;51.528;5.076;2022-12-15T06:41:52;100733.81;;;-1.75;60.95
64158;BME280;50449;51.528;5.076;2022-12-15T06:44:17;100733.81;;;-1.75;60.73
64158;BME280;50449;51.528;5.076;2022-12-15T06:46:43;100731.31;;;-1.77;60.99
64158;BME280;50449;51.528;5.076;2022-12-15T06:49:10;100730.50;;;-1.77;61.06
64158;BME280;50449;51.528;5.076;2022-12-15T06:51:35;100730.50;;;-1.77;60.94
64158;BME280;50449;51.528;5.076;2022-12-15T06:54:01;100730.69;;;-1.79;61.03
64158;BME280;50449;51.528;5.076;2022-12-15T06:56:32;100734.16;;;-1.78;60.80
64158;BME280;50449;51.528;5.076;2022-12-15T06:58:58;100729.69;;;-1.78;61.08
64158;BME280;50449;51.528;5.076;2022-12-15T07:01:24;100736.94;;;-1.80;60.82
64158;BME280;50449;51.528;5.076;2022-12-15T07:03:51;100731.66;;;-1.80;61.06
64158;BME280;50449;51.528;5.076;2022-12-15T07:06:16;100730.81;;;-1.80;60.92
64158;BME280;50449;51.528;5.076;2022-12-15T07:08:43;100739.78;;;-1.81;61.17
64158;BME280;50449;51.528;5.076;2022-12-15T07:11:12;100742.44;;;-1.81;60.94
64158;BME280;50449;51.528;5.076;2022-12-15T07:13:38;100744.22;;;-1.82;61.09
64158;BME280;50449;51.528;5.076;2022-12-15T07:16:05;100751.34;;;-1.82;61.06
64158;BME280;50449;51.528;5.076;2022-12-15T07:18:31;100739.09;;;-1.83;61.18
64158;BME280;50449;51.528;5.076;2022-12-15T07:21:01;100755.00;;;-1.83;61.03
64158;BME280;50449;51.528;5.076;2022-12-15T07:23:27;100748.88;;;-1.84;60.79
64158;BME280;50449;51.528;5.076;2022-12-15T07:25:53;100761.25;;;-1.84;60.73
64158;BME280;50449;51.528;5.076;2022-12-15T07:28:18;100767.56;;;-1.85;60.86
64158;BME280;50449;51.528;5.076;2022-12-15T07:30:44;100755.31;;;-1.86;60.64
64158;BME280;50449;51.528;5.076;2022-12-15T07:33:09;100751.00;;;-1.87;60.82
64158;BME280;50449;51.528;5.076;2022-12-15T07:35:34;100759.75;;;-1.87;60.69
64158;BME280;50449;51.528;5.076;2022-12-15T07:38:06;100756.28;;;-1.87;61.04
64158;BME280;50449;51.528;5.076;2022-12-15T07:40:32;100749.34;;;-1.88;60.85
64158;BME280;50449;51.528;5.076;2022-12-15T07:42:58;100752.00;;;-1.88;60.82
64158;BME280;50449;51.528;5.076;2022-12-15T07:45:24;100752.97;;;-1.89;60.69
64158;BME280;50449;51.528;5.076;2022-12-15T07:47:49;100764.41;;;-1.89;60.72
64158;BME280;50449;51.528;5.076;2022-12-15T07:50:16;100759.94;;;-1.88;60.93
64158;BME280;50449;51.528;5.076;2022-12-15T07:52:42;100757.44;;;-1.90;61.06
64158;BME280;50449;51.528;5.076;2022-12-15T07:55:08;100764.56;;;-1.90;60.71
64158;BME280;50449;51.528;5.076;2022-12-15T07:57:33;100771.50;;;-1.89;60.49
64158;BME280;50449;51.528;5.076;2022-12-15T07:59:58;100774.16;;;-1.89;60.75
64158;BME280;50449;51.528;5.076;2022-12-15T08:02:24;100777.78;;;-1.90;60.93
64158;BME280;50449;51.528;5.076;2022-12-15T08:04:49;100772.50;;;-1.90;60.98
64158;BME280;50449;51.528;5.076;2022-12-15T08:07:15;100783.09;;;-1.90;60.78
64158;BME280;50449;51.528;5.076;2022-12-15T08:09:41;100784.91;;;-1.91;61.05
64158;BME280;50449;51.528;5.076;2022-12-15T08:12:06;100790.22;;;-1.91;60.80
64158;BME280;50449;51.528;5.076;2022-12-15T08:14:32;100777.13;;;-1.92;60.98
64158;BME280;50449;51.528;5.076;2022-12-15T08:16:58;100785.88;;;-1.92;60.70
64158;BME280;50449;51.528;5.076;2022-12-15T08:19:23;100791.19;;;-1.92;60.87
64158;BME280;50449;51.528;5.076;2022-12-15T08:21:49;100787.72;;;-1.92;60.77
64158;BME280;50449;51.528;5.076;2022-12-15T08:24:15;100789.53;;;-1.93;60.81
64158;BME280;50449;51.528;5.076;2022-12-15T08:26:42;100797.47;;;-1.93;60.81
64158;BME280;50449;51.528;5.076;2022-12-15T08:29:11;100786.88;;;-1.93;60.97
64158;BME280;50449;51.528;5.076;2022-12-15T08:31:37;100797.47;;;-1.93;60.78
64158;BME280;50449;51.528;5.076;2022-12-15T08:34:04;100787.88;;;-1.94;61.08
64158;BME280;50449;51.528;5.076;2022-12-15T08:36:29;100789.69;;;-1.94;60.72
64158;BME280;50449;51.528;5.076;2022-12-15T08:38:56;100788.84;;;-1.95;60.83
64158;BME280;50449;51.528;5.076;2022-12-15T08:41:28;100798.63;;;-1.96;60.93
64158;BME280;50449;51.528;5.076;2022-12-15T08:43:54;100799.44;;;-1.95;60.79
64158;BME280;50449;51.528;5.076;2022-12-15T08:46:23;100807.38;;;-1.95;61.02
64158;BME280;50449;51.528;5.076;2022-12-15T08:48:50;100804.75;;;-1.95;61.08
64158;BME280;50449;51.528;5.076;2022-12-15T08:51:17;100798.63;;;-1.96;60.97
64158;BME280;50449;51.528;5.076;2022-12-15T08:53:43;100799.44;;;-1.95;60.79
64158;BME280;50449;51.528;5.076;2022-12-15T08:56:10;100809.22;;;-1.96;60.78
64158;BME280;50449;51.528;5.076;2022-12-15T08:58:37;100812.69;;;-1.95;61.06
64158;BME280;50449;51.528;5.076;2022-12-15T09:01:05;100811.88;;;-1.96;60.81
64158;BME280;50449;51.528;5.076;2022-12-15T09:03:31;100821.44;;;-1.94;61.03
64158;BME280;50449;51.528;5.076;2022-12-15T09:06:01;100824.09;;;-1.94;60.87
64158;BME280;50449;51.528;5.076;2022-12-15T09:08:28;100823.28;;;-1.95;61.08
64158;BME280;50449;51.528;5.076;2022-12-15T09:10:56;100829.38;;;-1.94;60.78
64158;BME280;50449;51.528;5.076;2022-12-15T09:13:21;100838.19;;;-1.94;61.09
64158;BME280;50449;51.528;5.076;2022-12-15T09:15:57;100835.53;;;-1.94;60.74
64158;BME280;50449;51.528;5.076;2022-12-15T09:18:26;100835.53;;;-1.94;60.92
64158;BME280;50449;51.528;5.076;2022-12-15T09:20:52;100845.28;;;-1.94;61.13
64158;BME280;50449;51.528;5.076;2022-12-15T09:23:18;100850.56;;;-1.94;61.18
64158;BME280;50449;51.528;5.076;2022-12-15T09:25:44;100854.06;;;-1.94;60.93
64158;BME280;50449;51.528;5.076;2022-12-15T09:28:11;100854.91;;;-1.93;60.96
64158;BME280;50449;51.528;5.076;2022-12-15T09:30:36;100849.59;;;-1.93;60.93
64158;BME280;50449;51.528;5.076;2022-12-15T09:33:02;100851.44;;;-1.94;61.18
64158;BME280;50449;51.528;5.076;2022-12-15T09:35:28;100862.84;;;-1.93;60.82
64158;BME280;50449;51.528;5.076;2022-12-15T09:37:55;100861.16;;;-1.94;60.92
64158;BME280;50449;51.528;5.076;2022-12-15T09:40:21;100868.13;;;-1.93;60.83
64158;BME280;50449;51.528;5.076;2022-12-15T09:42:52;100873.44;;;-1.93;60.92
64158;BME280;50449;51.528;5.076;2022-12-15T09:45:21;100881.38;;;-1.93;60.94
64158;BME280;50449;51.528;5.076;2022-12-15T09:48:00;100878.72;;;-1.93;60.99
64158;BME280;50449;51.528;5.076;2022-12-15T09:50:33;100886.81;;;-1.95;61.06
64158;BME280;50449;51.528;5.076;2022-12-15T09:53:00;100883.19;;;-1.94;61.00
64158;BME280;50449;51.528;5.076;2022-12-15T09:55:28;100883.19;;;-1.94;61.12
64158;BME280;50449;51.528;5.076;2022-12-15T10:00:52;100877.91;;;-1.94;61.10
64158;BME280;50449;51.528;5.076;2022-12-15T10:03:41;100878.53;;;-1.92;61.08
64158;BME280;50449;51.528;5.076;2022-12-15T10:08:40;100878.72;;;-1.93;61.19
64158;BME280;50449;51.528;5.076;2022-12-15T10:11:58;100876.06;;;-1.93;61.05
64158;BME280;50449;51.528;5.076;2022-12-15T10:19:52;100881.38;;;-1.93;61.40
64158;BME280;50449;51.528;5.076;2022-12-15T10:22:25;100878.72;;;-1.93;61.07
64158;BME280;50449;51.528;5.076;2022-12-15T10:24:52;100873.44;;;-1.93;61.14
64158;BME280;50449;51.528;5.076;2022-12-15T10:30:11;100873.25;;;-1.92;61.14
64158;BME280;50449;51.528;5.076;2022-12-15T10:33:02;100872.28;;;-1.91;60.91
64158;BME280;50449;51.528;5.076;2022-12-15T10:35:31;100874.94;;;-1.91;60.87
64158;BME280;50449;51.528;5.076;2022-12-15T10:37:59;100872.28;;;-1.91;60.95
64158;BME280;50449;51.528;5.076;2022-12-15T10:40:44;100876.56;;;-1.90;60.92
64158;BME280;50449;51.528;5.076;2022-12-15T10:43:14;100880.03;;;-1.89;60.87
64158;BME280;50449;51.528;5.076;2022-12-15T10:45:45;100871.97;;;-1.88;61.14
64158;BME280;50449;51.528;5.076;2022-12-15T10:48:18;100874.59;;;-1.88;61.20
64158;BME280;50449;51.528;5.076;2022-12-15T10:50:44;100877.09;;;-1.86;61.09
64158;BME280;50449;51.528;5.076;2022-12-15T10:53:40;100875.28;;;-1.86;61.48
64158;BME280;50449;51.528;5.076;2022-12-15T10:56:07;100877.09;;;-1.86;61.16
64158;BME280;50449;51.528;5.076;2022-12-15T10:58:50;100870.00;;;-1.86;61.26
64158;BME280;50449;51.528;5.076;2022-12-15T11:01:23;100868.03;;;-1.84;61.27
64158;BME280;50449;51.528;5.076;2022-12-15T11:03:49;100865.38;;;-1.84;61.07
64158;BME280;50449;51.528;5.076;2022-12-15T11:06:22;100868.84;;;-1.83;61.38
64158;BME280;50449;51.528;5.076;2022-12-15T11:08:50;100868.03;;;-1.84;61.58
64158;BME280;50449;51.528;5.076;2022-12-15T11:11:31;100873.13;;;-1.82;61.18
64158;BME280;50449;51.528;5.076;2022-12-15T11:14:19;100875.78;;;-1.82;61.06
64158;BME280;50449;51.528;5.076;2022-12-15T11:16:52;100868.53;;;-1.80;61.38
64158;BME280;50449;51.528;5.076;2022-12-15T11:19:29;100856.91;;;-1.79;61.53
64158;BME280;50449;51.528;5.076;2022-12-15T11:22:00;100854.28;;;-1.79;61.34
64158;BME280;50449;51.528;5.076;2022-12-15T11:24:48;100857.78;;;-1.79;61.52
64158;BME280;50449;51.528;5.076;2022-12-15T11:27:34;100856.78;;;-1.78;61.54
64158;BME280;50449;51.528;5.076;2022-12-15T11:30:12;100855.63;;;-1.75;61.54
64158;BME280;50449;51.528;5.076;2022-12-15T11:32:41;100862.56;;;-1.74;61.54
64158;BME280;50449;51.528;5.076;2022-12-15T11:35:11;100860.78;;;-1.73;61.66
64158;BME280;50449;51.528;5.076;2022-12-15T11:48:19;100868.41;;;-1.70;61.65
64158;BME280;50449;51.528;5.076;2022-12-15T11:56:42;100864.41;;;-1.66;61.92
64158;BME280;50449;51.528;5.076;2022-12-15T12:02:26;100860.81;;;-1.65;61.94
64158;BME280;50449;51.528;5.076;2022-12-15T12:05:13;100865.09;;;-1.64;61.71
64158;BME280;50449;51.528;5.076;2022-12-15T12:07:46;100857.16;;;-1.64;61.77
64158;BME280;50449;51.528;5.076;2022-12-15T12:15:58;100849.56;;;-1.59;62.11
64158;BME280;50449;51.528;5.076;2022-12-15T12:18:33;100846.59;;;-1.56;62.06
64158;BME280;50449;51.528;5.076;2022-12-15T12:21:03;100845.59;;;-1.55;62.18
64158;BME280;50449;51.528;5.076;2022-12-15T12:23:46;100841.94;;;-1.54;62.48
64158;BME280;50449;51.528;5.076;2022-12-15T12:26:22;100843.44;;;-1.52;62.25
64158;BME280;50449;51.528;5.076;2022-12-15T12:29:10;100839.81;;;-1.50;62.53
64158;BME280;50449;51.528;5.076;2022-12-15T12:31:50;100830.06;;;-1.50;62.35
64158;BME280;50449;51.528;5.076;2022-12-15T12:37:42;100827.91;;;-1.46;62.88
64158;BME280;50449;51.528;5.076;2022-12-15T12:40:18;100828.75;;;-1.46;62.56
64158;BME280;50449;51.528;5.076;2022-12-15T12:42:57;100833.88;;;-1.44;62.74
64158;BME280;50449;51.528;5.076;2022-12-15T12:45:35;100823.13;;;-1.43;62.85
64158;BME280;50449;51.528;5.076;2022-12-15T12:48:14;100823.78;;;-1.41;63.22
64158;BME280;50449;51.528;5.076;2022-12-15T12:50:45;100818.50;;;-1.41;63.36
64158;BME280;50449;51.528;5.076;2022-12-15T12:53:26;100813.84;;;-1.39;63.48
64158;BME280;50449;51.528;5.076;2022-12-15T12:55:55;100820.63;;;-1.36;63.72
64158;BME280;50449;51.528;5.076;2022-12-15T12:58:37;100817.81;;;-1.35;64.16
64158;BME280;50449;51.528;5.076;2022-12-15T13:03:38;100815.03;;;-1.33;64.46
64158;BME280;50449;51.528;5.076;2022-12-15T13:08:52;100810.56;;;-1.33;64.74
64158;BME280;50449;51.528;5.076;2022-12-15T13:16:55;100807.56;;;-1.29;64.86
64158;BME280;50449;51.528;5.076;2022-12-15T13:25:00;100795.66;;;-1.25;65.44
64158;BME280;50449;51.528;5.076;2022-12-15T13:27:36;100798.97;;;-1.23;65.44
64158;BME280;50449;51.528;5.076;2022-12-15T13:32:39;100786.88;;;-1.18;66.02
64158;BME280;50449;51.528;5.076;2022-12-15T13:38:02;100772.81;;;-1.18;66.14
64158;BME280;50449;51.528;5.076;2022-12-15T13:40:50;100764.69;;;-1.17;66.52
64158;BME280;50449;51.528;5.076;2022-12-15T13:46:00;100762.53;;;-1.13;66.64
64158;BME280;50449;51.528;5.076;2022-12-15T13:48:37;100760.53;;;-1.11;66.73
64158;BME280;50449;51.528;5.076;2022-12-15T13:51:26;100769.97;;;-1.09;67.04
64158;BME280;50449;51.528;5.076;2022-12-15T13:54:03;100769.81;;;-1.07;67.22
64158;BME280;50449;51.528;5.076;2022-12-15T13:59:18;100762.53;;;-1.05;67.52
64158;BME280;50449;51.528;5.076;2022-12-15T14:01:51;100767.50;;;-1.02;67.26
64158;BME280;50449;51.528;5.076;2022-12-15T14:04:18;100763.00;;;-1.01;67.59
64158;BME280;50449;51.528;5.076;2022-12-15T14:06:52;100765.50;;;-1.00;67.62
64158;BME280;50449;51.528;5.076;2022-12-15T14:09:25;100762.72;;;-0.98;67.58
64158;BME280;50449;51.528;5.076;2022-12-15T14:11:52;100762.50;;;-0.97;67.69
64158;BME280;50449;51.528;5.076;2022-12-15T14:14:27;100757.06;;;-0.95;67.85
64158;BME280;50449;51.528;5.076;2022-12-15T14:17:12;100753.41;;;-0.94;68.22
64158;BME280;50449;51.528;5.076;2022-12-15T14:19:47;100757.72;;;-0.93;68.36
64158;BME280;50449;51.528;5.076;2022-12-15T14:22:23;100751.41;;;-0.92;68.36
64158;BME280;50449;51.528;5.076;2022-12-15T14:24:50;100748.63;;;-0.91;68.33
64158;BME280;50449;51.528;5.076;2022-12-15T14:27:23;100745.78;;;-0.89;68.82
64158;BME280;50449;51.528;5.076;2022-12-15T14:29:49;100744.78;;;-0.88;68.77
64158;BME280;50449;51.528;5.076;2022-12-15T14:32:15;100749.91;;;-0.87;68.76
64158;BME280;50449;51.528;5.076;2022-12-15T14:34:42;100735.69;;;-0.85;68.73
64158;BME280;50449;51.528;5.076;2022-12-15T14:37:16;100734.66;;;-0.84;69.01
64158;BME280;50449;51.528;5.076;2022-12-15T14:39:45;100740.63;;;-0.82;69.07
64158;BME280;50449;51.528;5.076;2022-12-15T14:42:22;100734.31;;;-0.81;68.44
64158;BME280;50449;51.528;5.076;2022-12-15T14:44:50;100736.81;;;-0.80;69.06
64158;BME280;50449;51.528;5.076;2022-12-15T14:47:25;100733.97;;;-0.78;69.00
64158;BME280;50449;51.528;5.076;2022-12-15T14:49:51;100732.19;;;-0.78;69.28